sensor_id;sensor_type;location;lat;lon;timestamp;P1;durP1;ratioP1;P2;durP2;ratioP2
24801;SDS011;12898;50.520;12.152;2023-03-12T00:00:50;19.53;;;11.33;;
24801;SDS011;12898;50.520;12.152;2023-03-12T00:03:16;22.17;;;11.13;;
24801;SDS011;12898;50.520;12.152;2023-03-12T00:05:42;18.97;;;9.90;;
24801;SDS011;12898;50.520;12.152;2023-03-12T00:08:09;20.47;;;10.60;;
24801;SDS011;12898;50.520;12.152;2023-03-12T00:10:37;21.40;;;10.73;;
24801;SDS011;12898;50.520;12.152;2023-03-12T00:13:04;23.67;;;11.20;;
24801;SDS011;12898;50.520;12.152;2023-03-12T00:15:29;21.17;;;11.63;;
24801;SDS011;12898;50.520;12.152;2023-03-12T00:17:55;23.67;;;11.90;;
24801;SDS011;12898;50.520;12.152;2023-03-12T00:20:21;20.73;;;11.40;;
24801;SDS011;12898;50.520;12.152;2023-03-12T00:22:47;20.87;;;11.53;;
24801;SDS011;12898;50.520;12.152;2023-03-12T00:25:14;20.67;;;11.20;;
24801;SDS011;12898;50.520;12.152;2023-03-12T00:27:41;22.67;;;11.47;;
24801;SDS011;12898;50.520;12.152;2023-03-12T00:30:08;21.57;;;11.67;;
24801;SDS011;12898;50.520;12.152;2023-03-12T00:32:35;21.33;;;10.83;;
24801;SDS011;12898;50.520;12.152;2023-03-12T00:35:02;18.10;;;10.93;;
24801;SDS011;12898;50.520;12.152;2023-03-12T00:37:29;19.63;;;11.17;;
24801;SDS011;12898;50.520;12.152;2023-03-12T00:39:57;23.07;;;11.00;;
24801;SDS011;12898;50.520;12.152;2023-03-12T00:42:23;21.20;;;10.03;;
24801;SDS011;12898;50.520;12.152;2023-03-12T00:44:49;19.20;;;9.40;;
24801;SDS011;12898;50.520;12.152;2023-03-12T00:47:15;16.57;;;8.77;;
24801;SDS011;12898;50.520;12.152;2023-03-12T00:49:40;22.60;;;7.57;;
24801;SDS011;12898;50.520;12.152;2023-03-12T00:52:06;16.03;;;8.17;;
24801;SDS011;12898;50.520;12.152;2023-03-12T00:54:32;17.40;;;7.60;;
24801;SDS011;12898;50.520;12.152;2023-03-12T00:56:57;19.90;;;7.77;;
24801;SDS011;12898;50.520;12.152;2023-03-12T00:59:23;13.67;;;6.77;;
24801;SDS011;12898;50.520;12.152;2023-03-12T01:01:49;17.67;;;8.20;;
24801;SDS011;12898;50.520;12.152;2023-03-12T01:04:15;18.10;;;8.57;;
24801;SDS011;12898;50.520;12.152;2023-03-12T01:06:41;15.07;;;8.00;;
24801;SDS011;12898;50.520;12.152;2023-03-12T01:09:07;16.83;;;7.73;;
24801;SDS011;12898;50.520;12.152;2023-03-12T01:11:34;15.93;;;7.90;;
24801;SDS011;12898;50.520;12.152;2023-03-12T01:14:01;19.10;;;7.90;;
24801;SDS011;12898;50.520;12.152;2023-03-12T01:16:28;17.77;;;8.63;;
24801;SDS011;12898;50.520;12.152;2023-03-12T01:18:54;18.00;;;9.47;;
24801;SDS011;12898;50.520;12.152;2023-03-12T01:21:21;20.43;;;10.80;;
24801;SDS011;12898;50.520;12.152;2023-03-12T01:23:48;19.57;;;11.00;;
24801;SDS011;12898;50.520;12.152;2023-03-12T01:26:14;26.53;;;11.70;;
24801;SDS011;12898;50.520;12.152;2023-03-12T01:28:40;25.07;;;12.17;;
24801;SDS011;12898;50.520;12.152;2023-03-12T01:31:10;19.70;;;11.87;;
24801;SDS011;12898;50.520;12.152;2023-03-12T01:33:39;20.30;;;10.50;;
24801;SDS011;12898;50.520;12.152;2023-03-12T01:36:12;24.20;;;11.70;;
24801;SDS011;12898;50.520;12.152;2023-03-12T01:38:41;22.63;;;11.47;;
24801;SDS011;12898;50.520;12.152;2023-03-12T01:41:06;20.73;;;10.63;;
24801;SDS011;12898;50.520;12.152;2023-03-12T01:43:33;24.20;;;11.23;;
24801;SDS011;12898;50.520;12.152;2023-03-12T01:49:04;21.30;;;9.47;;
24801;SDS011;12898;50.520;12.152;2023-03-12T01:51:44;18.50;;;9.93;;
24801;SDS011;12898;50.520;12.152;2023-03-12T01:54:39;22.40;;;10.80;;
24801;SDS011;12898;50.520;12.152;2023-03-12T01:57:08;16.63;;;8.00;;
24801;SDS011;12898;50.520;12.152;2023-03-12T01:59:41;16.20;;;8.50;;
24801;SDS011;12898;50.520;12.152;2023-03-12T02:02:11;13.93;;;7.80;;
24801;SDS011;12898;50.520;12.152;2023-03-12T02:04:39;15.73;;;8.47;;
24801;SDS011;12898;50.520;12.152;2023-03-12T02:07:08;18.17;;;8.57;;
24801;SDS011;12898;50.520;12.152;2023-03-12T02:09:38;23.70;;;8.80;;
24801;SDS011;12898;50.520;12.152;2023-03-12T02:12:07;19.00;;;8.20;;
24801;SDS011;12898;50.520;12.152;2023-03-12T02:14:35;18.70;;;8.83;;
24801;SDS011;12898;50.520;12.152;2023-03-12T02:17:01;15.80;;;7.67;;
24801;SDS011;12898;50.520;12.152;2023-03-12T02:22:09;16.33;;;6.43;;
24801;SDS011;12898;50.520;12.152;2023-03-12T02:27:49;16.07;;;6.93;;
24801;SDS011;12898;50.520;12.152;2023-03-12T02:30:15;16.60;;;6.70;;
24801;SDS011;12898;50.520;12.152;2023-03-12T02:32:43;12.60;;;6.07;;
24801;SDS011;12898;50.520;12.152;2023-03-12T02:35:11;12.83;;;6.10;;
24801;SDS011;12898;50.520;12.152;2023-03-12T02:37:49;15.20;;;6.10;;
24801;SDS011;12898;50.520;12.152;2023-03-12T02:43:08;15.20;;;6.00;;
24801;SDS011;12898;50.520;12.152;2023-03-12T02:45:35;13.50;;;6.27;;
24801;SDS011;12898;50.520;12.152;2023-03-12T02:48:03;14.97;;;6.70;;
24801;SDS011;12898;50.520;12.152;2023-03-12T02:50:33;15.20;;;6.43;;
24801;SDS011;12898;50.520;12.152;2023-03-12T02:52:58;12.93;;;6.10;;
24801;SDS011;12898;50.520;12.152;2023-03-12T02:55:24;15.07;;;8.00;;
24801;SDS011;12898;50.520;12.152;2023-03-12T02:57:50;16.63;;;8.20;;
24801;SDS011;12898;50.520;12.152;2023-03-12T03:00:16;14.60;;;7.57;;
24801;SDS011;12898;50.520;12.152;2023-03-12T03:02:42;19.43;;;7.63;;
24801;SDS011;12898;50.520;12.152;2023-03-12T03:05:08;20.13;;;8.13;;
24801;SDS011;12898;50.520;12.152;2023-03-12T03:07:35;17.40;;;8.37;;
24801;SDS011;12898;50.520;12.152;2023-03-12T03:10:02;16.87;;;8.20;;
24801;SDS011;12898;50.520;12.152;2023-03-12T03:12:32;17.47;;;8.20;;
24801;SDS011;12898;50.520;12.152;2023-03-12T03:15:00;20.07;;;8.60;;
24801;SDS011;12898;50.520;12.152;2023-03-12T03:17:26;15.43;;;8.53;;
24801;SDS011;12898;50.520;12.152;2023-03-12T03:19:52;18.93;;;9.77;;
24801;SDS011;12898;50.520;12.152;2023-03-12T03:22:19;23.30;;;9.37;;
24801;SDS011;12898;50.520;12.152;2023-03-12T03:24:46;17.73;;;8.73;;
24801;SDS011;12898;50.520;12.152;2023-03-12T03:27:12;18.37;;;7.90;;
24801;SDS011;12898;50.520;12.152;2023-03-12T03:29:38;17.13;;;7.50;;
24801;SDS011;12898;50.520;12.152;2023-03-12T03:32:04;15.23;;;8.03;;
24801;SDS011;12898;50.520;12.152;2023-03-12T03:34:30;16.17;;;8.40;;
24801;SDS011;12898;50.520;12.152;2023-03-12T03:36:56;18.20;;;9.10;;
24801;SDS011;12898;50.520;12.152;2023-03-12T03:39:22;16.67;;;8.77;;
24801;SDS011;12898;50.520;12.152;2023-03-12T03:41:49;19.23;;;8.77;;
24801;SDS011;12898;50.520;12.152;2023-03-12T03:44:16;14.90;;;8.80;;
24801;SDS011;12898;50.520;12.152;2023-03-12T03:46:42;18.13;;;8.33;;
24801;SDS011;12898;50.520;12.152;2023-03-12T03:49:08;15.27;;;8.27;;
24801;SDS011;12898;50.520;12.152;2023-03-12T03:51:33;20.40;;;8.93;;
24801;SDS011;12898;50.520;12.152;2023-03-12T03:53:59;15.10;;;7.63;;
24801;SDS011;12898;50.520;12.152;2023-03-12T03:56:25;13.63;;;6.80;;
24801;SDS011;12898;50.520;12.152;2023-03-12T03:58:51;14.93;;;5.90;;
24801;SDS011;12898;50.520;12.152;2023-03-12T04:01:16;13.37;;;5.97;;
24801;SDS011;12898;50.520;12.152;2023-03-12T04:03:43;15.57;;;5.40;;
24801;SDS011;12898;50.520;12.152;2023-03-12T04:06:08;12.43;;;5.93;;
24801;SDS011;12898;50.520;12.152;2023-03-12T04:08:35;15.30;;;6.20;;
24801;SDS011;12898;50.520;12.152;2023-03-12T04:11:09;14.20;;;6.30;;
24801;SDS011;12898;50.520;12.152;2023-03-12T04:13:44;17.10;;;6.83;;
24801;SDS011;12898;50.520;12.152;2023-03-12T04:16:10;14.60;;;7.10;;
24801;SDS011;12898;50.520;12.152;2023-03-12T04:18:37;15.37;;;7.70;;
24801;SDS011;12898;50.520;12.152;2023-03-12T04:21:04;19.10;;;9.23;;
24801;SDS011;12898;50.520;12.152;2023-03-12T04:23:32;23.37;;;10.67;;
24801;SDS011;12898;50.520;12.152;2023-03-12T04:25:58;23.30;;;9.90;;
24801;SDS011;12898;50.520;12.152;2023-03-12T04:28:24;21.30;;;8.47;;
24801;SDS011;12898;50.520;12.152;2023-03-12T04:30:53;17.40;;;8.50;;
24801;SDS011;12898;50.520;12.152;2023-03-12T04:33:25;14.67;;;7.17;;
24801;SDS011;12898;50.520;12.152;2023-03-12T04:35:52;17.00;;;7.70;;
24801;SDS011;12898;50.520;12.152;2023-03-12T04:38:18;14.87;;;7.33;;
24801;SDS011;12898;50.520;12.152;2023-03-12T04:40:46;16.03;;;7.50;;
24801;SDS011;12898;50.520;12.152;2023-03-12T04:43:11;13.97;;;6.80;;
24801;SDS011;12898;50.520;12.152;2023-03-12T04:45:38;17.77;;;8.13;;
24801;SDS011;12898;50.520;12.152;2023-03-12T04:48:04;16.73;;;7.17;;
24801;SDS011;12898;50.520;12.152;2023-03-12T04:50:30;16.23;;;7.50;;
24801;SDS011;12898;50.520;12.152;2023-03-12T04:52:56;16.27;;;8.10;;
24801;SDS011;12898;50.520;12.152;2023-03-12T04:55:21;19.77;;;8.60;;
24801;SDS011;12898;50.520;12.152;2023-03-12T04:57:47;18.70;;;8.87;;
24801;SDS011;12898;50.520;12.152;2023-03-12T05:00:13;18.97;;;9.53;;
24801;SDS011;12898;50.520;12.152;2023-03-12T05:02:39;16.00;;;8.57;;
24801;SDS011;12898;50.520;12.152;2023-03-12T05:05:06;19.10;;;9.13;;
24801;SDS011;12898;50.520;12.152;2023-03-12T05:07:34;19.53;;;9.77;;
24801;SDS011;12898;50.520;12.152;2023-03-12T05:10:00;16.97;;;8.63;;
24801;SDS011;12898;50.520;12.152;2023-03-12T05:12:26;20.67;;;10.87;;
24801;SDS011;12898;50.520;12.152;2023-03-12T05:14:52;18.47;;;9.43;;
24801;SDS011;12898;50.520;12.152;2023-03-12T05:17:17;20.23;;;10.07;;
24801;SDS011;12898;50.520;12.152;2023-03-12T05:19:43;19.77;;;9.80;;
24801;SDS011;12898;50.520;12.152;2023-03-12T05:22:09;21.23;;;9.63;;
24801;SDS011;12898;50.520;12.152;2023-03-12T05:24:35;18.37;;;9.73;;
24801;SDS011;12898;50.520;12.152;2023-03-12T05:27:00;18.53;;;10.10;;
24801;SDS011;12898;50.520;12.152;2023-03-12T05:29:26;18.77;;;9.33;;
24801;SDS011;12898;50.520;12.152;2023-03-12T05:31:53;17.17;;;9.30;;
24801;SDS011;12898;50.520;12.152;2023-03-12T05:34:19;18.27;;;9.20;;
24801;SDS011;12898;50.520;12.152;2023-03-12T05:36:44;16.73;;;9.30;;
24801;SDS011;12898;50.520;12.152;2023-03-12T05:39:10;16.03;;;8.60;;
24801;SDS011;12898;50.520;12.152;2023-03-12T05:41:36;15.30;;;7.67;;
24801;SDS011;12898;50.520;12.152;2023-03-12T05:44:02;12.97;;;6.30;;
24801;SDS011;12898;50.520;12.152;2023-03-12T05:46:27;16.40;;;7.60;;
24801;SDS011;12898;50.520;12.152;2023-03-12T05:48:53;13.77;;;6.77;;
24801;SDS011;12898;50.520;12.152;2023-03-12T05:51:19;14.83;;;6.90;;
24801;SDS011;12898;50.520;12.152;2023-03-12T05:53:45;15.53;;;6.10;;
24801;SDS011;12898;50.520;12.152;2023-03-12T05:56:12;11.97;;;5.97;;
24801;SDS011;12898;50.520;12.152;2023-03-12T05:58:39;18.77;;;7.73;;
24801;SDS011;12898;50.520;12.152;2023-03-12T06:01:10;16.33;;;8.33;;
24801;SDS011;12898;50.520;12.152;2023-03-12T06:03:45;15.00;;;8.13;;
24801;SDS011;12898;50.520;12.152;2023-03-12T06:06:11;17.27;;;9.67;;
24801;SDS011;12898;50.520;12.152;2023-03-12T06:08:38;18.57;;;9.30;;
24801;SDS011;12898;50.520;12.152;2023-03-12T06:11:04;21.30;;;10.57;;
24801;SDS011;12898;50.520;12.152;2023-03-12T06:13:30;21.20;;;9.60;;
24801;SDS011;12898;50.520;12.152;2023-03-12T06:16:06;16.00;;;8.83;;
24801;SDS011;12898;50.520;12.152;2023-03-12T06:18:33;16.90;;;9.23;;
24801;SDS011;12898;50.520;12.152;2023-03-12T06:21:19;16.70;;;9.13;;
24801;SDS011;12898;50.520;12.152;2023-03-12T06:23:48;15.63;;;8.77;;
24801;SDS011;12898;50.520;12.152;2023-03-12T06:26:14;17.73;;;8.90;;
24801;SDS011;12898;50.520;12.152;2023-03-12T06:28:41;18.20;;;9.60;;
24801;SDS011;12898;50.520;12.152;2023-03-12T06:31:07;16.30;;;9.67;;
24801;SDS011;12898;50.520;12.152;2023-03-12T06:33:33;19.13;;;9.13;;
24801;SDS011;12898;50.520;12.152;2023-03-12T06:35:59;17.00;;;9.50;;
24801;SDS011;12898;50.520;12.152;2023-03-12T06:38:27;16.43;;;8.73;;
24801;SDS011;12898;50.520;12.152;2023-03-12T06:40:57;17.93;;;10.27;;
24801;SDS011;12898;50.520;12.152;2023-03-12T06:43:32;20.40;;;10.20;;
24801;SDS011;12898;50.520;12.152;2023-03-12T06:46:00;18.10;;;10.17;;
24801;SDS011;12898;50.520;12.152;2023-03-12T06:48:29;20.30;;;10.03;;
24801;SDS011;12898;50.520;12.152;2023-03-12T06:51:04;17.90;;;10.10;;
24801;SDS011;12898;50.520;12.152;2023-03-12T06:53:30;22.03;;;11.03;;
24801;SDS011;12898;50.520;12.152;2023-03-12T06:55:56;30.53;;;16.13;;
24801;SDS011;12898;50.520;12.152;2023-03-12T06:58:22;30.47;;;17.03;;
24801;SDS011;12898;50.520;12.152;2023-03-12T07:00:48;24.40;;;14.27;;
24801;SDS011;12898;50.520;12.152;2023-03-12T07:03:14;21.10;;;11.33;;
24801;SDS011;12898;50.520;12.152;2023-03-12T07:05:42;19.80;;;11.20;;
24801;SDS011;12898;50.520;12.152;2023-03-12T07:08:10;25.27;;;15.00;;
24801;SDS011;12898;50.520;12.152;2023-03-12T07:10:36;21.47;;;14.23;;
24801;SDS011;12898;50.520;12.152;2023-03-12T07:13:02;22.40;;;12.83;;
24801;SDS011;12898;50.520;12.152;2023-03-12T07:15:28;21.83;;;13.13;;
24801;SDS011;12898;50.520;12.152;2023-03-12T07:17:53;17.80;;;10.33;;
24801;SDS011;12898;50.520;12.152;2023-03-12T07:20:19;16.73;;;8.90;;
24801;SDS011;12898;50.520;12.152;2023-03-12T07:22:45;22.27;;;9.13;;
24801;SDS011;12898;50.520;12.152;2023-03-12T07:25:10;15.50;;;8.60;;
24801;SDS011;12898;50.520;12.152;2023-03-12T07:27:36;18.70;;;9.00;;
24801;SDS011;12898;50.520;12.152;2023-03-12T07:30:02;16.17;;;7.60;;
24801;SDS011;12898;50.520;12.152;2023-03-12T07:32:28;14.33;;;7.03;;
24801;SDS011;12898;50.520;12.152;2023-03-12T07:34:54;12.43;;;6.17;;
24801;SDS011;12898;50.520;12.152;2023-03-12T07:37:20;12.00;;;6.13;;
24801;SDS011;12898;50.520;12.152;2023-03-12T07:39:46;11.13;;;5.60;;
24801;SDS011;12898;50.520;12.152;2023-03-12T07:42:15;13.77;;;5.70;;
24801;SDS011;12898;50.520;12.152;2023-03-12T07:44:41;12.93;;;5.37;;
24801;SDS011;12898;50.520;12.152;2023-03-12T07:47:06;8.73;;;4.40;;
24801;SDS011;12898;50.520;12.152;2023-03-12T07:49:32;11.97;;;4.30;;
24801;SDS011;12898;50.520;12.152;2023-03-12T07:52:01;10.43;;;4.07;;
24801;SDS011;12898;50.520;12.152;2023-03-12T07:54:28;9.67;;;4.10;;
24801;SDS011;12898;50.520;12.152;2023-03-12T07:56:57;7.87;;;3.67;;
24801;SDS011;12898;50.520;12.152;2023-03-12T07:59:23;12.00;;;4.20;;
24801;SDS011;12898;50.520;12.152;2023-03-12T08:01:50;11.97;;;3.97;;
24801;SDS011;12898;50.520;12.152;2023-03-12T08:04:16;9.03;;;3.43;;
24801;SDS011;12898;50.520;12.152;2023-03-12T08:06:42;8.10;;;3.63;;
24801;SDS011;12898;50.520;12.152;2023-03-12T08:09:09;7.93;;;3.47;;
24801;SDS011;12898;50.520;12.152;2023-03-12T08:11:35;7.43;;;3.40;;
24801;SDS011;12898;50.520;12.152;2023-03-12T08:14:01;9.47;;;3.70;;
24801;SDS011;12898;50.520;12.152;2023-03-12T08:16:28;8.97;;;3.80;;
24801;SDS011;12898;50.520;12.152;2023-03-12T08:18:54;11.33;;;3.40;;
24801;SDS011;12898;50.520;12.152;2023-03-12T08:21:20;8.00;;;3.13;;
24801;SDS011;12898;50.520;12.152;2023-03-12T08:23:46;8.80;;;3.30;;
24801;SDS011;12898;50.520;12.152;2023-03-12T08:26:11;9.50;;;3.40;;
24801;SDS011;12898;50.520;12.152;2023-03-12T08:28:37;7.33;;;3.20;;
24801;SDS011;12898;50.520;12.152;2023-03-12T08:31:03;9.93;;;3.43;;
24801;SDS011;12898;50.520;12.152;2023-03-12T08:33:29;13.70;;;3.30;;
24801;SDS011;12898;50.520;12.152;2023-03-12T08:35:55;9.53;;;3.63;;
24801;SDS011;12898;50.520;12.152;2023-03-12T08:38:20;9.20;;;3.17;;
24801;SDS011;12898;50.520;12.152;2023-03-12T08:40:46;8.13;;;2.97;;
24801;SDS011;12898;50.520;12.152;2023-03-12T08:43:21;10.03;;;3.43;;
24801;SDS011;12898;50.520;12.152;2023-03-12T08:45:51;10.57;;;3.20;;
24801;SDS011;12898;50.520;12.152;2023-03-12T08:48:26;5.73;;;2.80;;
24801;SDS011;12898;50.520;12.152;2023-03-12T08:50:54;7.73;;;3.27;;
24801;SDS011;12898;50.520;12.152;2023-03-12T08:53:24;8.43;;;3.10;;
24801;SDS011;12898;50.520;12.152;2023-03-12T08:55:51;8.57;;;3.30;;
24801;SDS011;12898;50.520;12.152;2023-03-12T08:58:18;8.53;;;3.30;;
24801;SDS011;12898;50.520;12.152;2023-03-12T09:00:44;8.93;;;3.30;;
24801;SDS011;12898;50.520;12.152;2023-03-12T09:03:10;9.10;;;3.53;;
24801;SDS011;12898;50.520;12.152;2023-03-12T09:05:38;9.10;;;3.60;;
24801;SDS011;12898;50.520;12.152;2023-03-12T09:08:05;10.37;;;3.53;;
24801;SDS011;12898;50.520;12.152;2023-03-12T09:10:32;8.97;;;3.33;;
24801;SDS011;12898;50.520;12.152;2023-03-12T09:12:58;7.37;;;3.10;;
24801;SDS011;12898;50.520;12.152;2023-03-12T09:15:24;11.43;;;3.60;;
24801;SDS011;12898;50.520;12.152;2023-03-12T09:17:50;10.30;;;3.87;;
24801;SDS011;12898;50.520;12.152;2023-03-12T09:20:15;9.37;;;3.50;;
24801;SDS011;12898;50.520;12.152;2023-03-12T09:22:42;8.17;;;3.53;;
24801;SDS011;12898;50.520;12.152;2023-03-12T09:25:09;9.97;;;3.57;;
24801;SDS011;12898;50.520;12.152;2023-03-12T09:27:36;9.67;;;3.70;;
24801;SDS011;12898;50.520;12.152;2023-03-12T09:30:07;7.27;;;2.90;;
24801;SDS011;12898;50.520;12.152;2023-03-12T09:32:37;10.07;;;3.00;;
24801;SDS011;12898;50.520;12.152;2023-03-12T09:35:03;9.30;;;3.20;;
24801;SDS011;12898;50.520;12.152;2023-03-12T09:37:31;8.50;;;2.70;;
24801;SDS011;12898;50.520;12.152;2023-03-12T09:39:57;9.90;;;2.50;;
24801;SDS011;12898;50.520;12.152;2023-03-12T09:42:29;5.90;;;2.40;;
24801;SDS011;12898;50.520;12.152;2023-03-12T09:45:29;8.23;;;2.57;;
24801;SDS011;12898;50.520;12.152;2023-03-12T09:48:06;8.43;;;2.27;;
24801;SDS011;12898;50.520;12.152;2023-03-12T09:50:42;7.20;;;2.60;;
24801;SDS011;12898;50.520;12.152;2023-03-12T09:56:05;7.53;;;2.50;;
24801;SDS011;12898;50.520;12.152;2023-03-12T09:58:38;6.03;;;2.30;;
24801;SDS011;12898;50.520;12.152;2023-03-12T10:01:16;8.10;;;2.50;;
24801;SDS011;12898;50.520;12.152;2023-03-12T10:06:42;7.10;;;2.60;;
24801;SDS011;12898;50.520;12.152;2023-03-12T10:09:28;7.17;;;2.70;;
24801;SDS011;12898;50.520;12.152;2023-03-12T10:12:23;7.53;;;2.97;;
24801;SDS011;12898;50.520;12.152;2023-03-12T10:15:15;6.63;;;2.73;;
24801;SDS011;12898;50.520;12.152;2023-03-12T10:18:35;7.07;;;2.73;;
24801;SDS011;12898;50.520;12.152;2023-03-12T10:21:18;14.10;;;2.83;;
24801;SDS011;12898;50.520;12.152;2023-03-12T10:23:57;6.47;;;2.70;;
24801;SDS011;12898;50.520;12.152;2023-03-12T10:26:59;7.00;;;2.53;;
24801;SDS011;12898;50.520;12.152;2023-03-12T10:29:29;6.90;;;2.27;;
24801;SDS011;12898;50.520;12.152;2023-03-12T10:34:39;7.07;;;2.20;;
24801;SDS011;12898;50.520;12.152;2023-03-12T10:37:16;6.80;;;2.30;;
24801;SDS011;12898;50.520;12.152;2023-03-12T10:39:49;7.13;;;2.23;;
24801;SDS011;12898;50.520;12.152;2023-03-12T10:42:16;7.13;;;1.77;;
24801;SDS011;12898;50.520;12.152;2023-03-12T10:44:50;13.60;;;2.30;;
24801;SDS011;12898;50.520;12.152;2023-03-12T10:47:37;7.67;;;2.20;;
24801;SDS011;12898;50.520;12.152;2023-03-12T10:50:12;6.70;;;2.30;;
24801;SDS011;12898;50.520;12.152;2023-03-12T10:52:42;10.13;;;2.63;;
24801;SDS011;12898;50.520;12.152;2023-03-12T10:57:50;7.80;;;2.17;;
24801;SDS011;12898;50.520;12.152;2023-03-12T11:00:19;5.37;;;2.20;;
24801;SDS011;12898;50.520;12.152;2023-03-12T11:02:54;7.47;;;2.60;;
24801;SDS011;12898;50.520;12.152;2023-03-12T11:05:23;6.87;;;2.10;;
24801;SDS011;12898;50.520;12.152;2023-03-12T11:07:53;7.87;;;2.40;;
24801;SDS011;12898;50.520;12.152;2023-03-12T11:10:24;10.03;;;2.77;;
24801;SDS011;12898;50.520;12.152;2023-03-12T11:13:20;9.33;;;2.30;;
24801;SDS011;12898;50.520;12.152;2023-03-12T11:16:09;7.93;;;2.40;;
24801;SDS011;12898;50.520;12.152;2023-03-12T11:18:57;8.17;;;2.20;;
24801;SDS011;12898;50.520;12.152;2023-03-12T11:21:29;8.57;;;2.30;;
24801;SDS011;12898;50.520;12.152;2023-03-12T11:24:13;7.90;;;2.43;;
24801;SDS011;12898;50.520;12.152;2023-03-12T11:26:48;8.73;;;2.33;;
24801;SDS011;12898;50.520;12.152;2023-03-12T11:29:27;10.47;;;2.63;;
24801;SDS011;12898;50.520;12.152;2023-03-12T11:32:17;5.87;;;2.30;;
24801;SDS011;12898;50.520;12.152;2023-03-12T11:34:48;7.37;;;2.03;;
24801;SDS011;12898;50.520;12.152;2023-03-12T11:49:06;9.70;;;2.13;;
24801;SDS011;12898;50.520;12.152;2023-03-12T11:52:14;6.83;;;2.20;;
24801;SDS011;12898;50.520;12.152;2023-03-12T11:58:16;6.83;;;2.00;;
24801;SDS011;12898;50.520;12.152;2023-03-12T12:01:07;8.43;;;2.13;;
24801;SDS011;12898;50.520;12.152;2023-03-12T12:22:12;8.37;;;2.57;;
24801;SDS011;12898;50.520;12.152;2023-03-12T12:34:23;7.83;;;3.30;;
24801;SDS011;12898;50.520;12.152;2023-03-12T12:40:14;10.93;;;2.90;;
24801;SDS011;12898;50.520;12.152;2023-03-12T12:46:01;8.97;;;3.20;;
24801;SDS011;12898;50.520;12.152;2023-03-12T12:48:39;10.37;;;3.83;;
24801;SDS011;12898;50.520;12.152;2023-03-12T12:51:08;5.43;;;2.90;;
24801;SDS011;12898;50.520;12.152;2023-03-12T12:53:43;5.90;;;2.90;;
24801;SDS011;12898;50.520;12.152;2023-03-12T12:56:19;10.20;;;2.80;;
24801;SDS011;12898;50.520;12.152;2023-03-12T13:02:20;12.97;;;3.60;;
24801;SDS011;12898;50.520;12.152;2023-03-12T13:04:56;6.43;;;2.90;;
24801;SDS011;12898;50.520;12.152;2023-03-12T13:12:58;7.87;;;2.70;;
24801;SDS011;12898;50.520;12.152;2023-03-12T13:20:25;6.10;;;2.50;;
24801;SDS011;12898;50.520;12.152;2023-03-12T13:25:56;8.00;;;2.93;;
24801;SDS011;12898;50.520;12.152;2023-03-12T13:29:17;9.17;;;2.53;;
24801;SDS011;12898;50.520;12.152;2023-03-12T13:33:56;6.23;;;2.57;;
24801;SDS011;12898;50.520;12.152;2023-03-12T13:36:25;7.43;;;3.00;;
24801;SDS011;12898;50.520;12.152;2023-03-12T13:41:31;7.33;;;3.00;;
24801;SDS011;12898;50.520;12.152;2023-03-12T13:44:21;6.23;;;2.80;;
24801;SDS011;12898;50.520;12.152;2023-03-12T13:50:13;8.77;;;3.10;;
24801;SDS011;12898;50.520;12.152;2023-03-12T13:52:45;8.73;;;2.63;;
24801;SDS011;12898;50.520;12.152;2023-03-12T13:55:26;6.23;;;2.70;;
24801;SDS011;12898;50.520;12.152;2023-03-12T14:00:40;6.03;;;2.70;;
24801;SDS011;12898;50.520;12.152;2023-03-12T14:03:39;4.67;;;2.83;;
24801;SDS011;12898;50.520;12.152;2023-03-12T14:06:21;6.30;;;2.67;;
24801;SDS011;12898;50.520;12.152;2023-03-12T14:12:00;9.63;;;2.93;;
24801;SDS011;12898;50.520;12.152;2023-03-12T14:14:45;9.40;;;3.17;;
24801;SDS011;12898;50.520;12.152;2023-03-12T14:17:59;6.80;;;2.97;;
24801;SDS011;12898;50.520;12.152;2023-03-12T14:20:33;4.07;;;2.50;;
24801;SDS011;12898;50.520;12.152;2023-03-12T14:23:04;9.97;;;3.10;;
24801;SDS011;12898;50.520;12.152;2023-03-12T14:25:42;8.67;;;2.90;;
24801;SDS011;12898;50.520;12.152;2023-03-12T14:28:12;9.30;;;3.23;;
24801;SDS011;12898;50.520;12.152;2023-03-12T14:30:47;7.70;;;2.87;;
24801;SDS011;12898;50.520;12.152;2023-03-12T14:33:43;9.00;;;2.87;;
24801;SDS011;12898;50.520;12.152;2023-03-12T14:36:21;9.20;;;3.43;;
24801;SDS011;12898;50.520;12.152;2023-03-12T14:38:52;7.67;;;2.87;;
24801;SDS011;12898;50.520;12.152;2023-03-12T14:41:33;9.87;;;3.60;;
24801;SDS011;12898;50.520;12.152;2023-03-12T14:44:04;7.83;;;3.47;;
24801;SDS011;12898;50.520;12.152;2023-03-12T14:46:47;10.13;;;3.40;;
24801;SDS011;12898;50.520;12.152;2023-03-12T14:49:28;9.00;;;3.90;;
24801;SDS011;12898;50.520;12.152;2023-03-12T14:51:55;6.13;;;3.17;;
24801;SDS011;12898;50.520;12.152;2023-03-12T14:54:22;8.40;;;3.30;;
24801;SDS011;12898;50.520;12.152;2023-03-12T14:56:50;9.67;;;3.60;;
24801;SDS011;12898;50.520;12.152;2023-03-12T15:01:49;6.57;;;2.90;;
24801;SDS011;12898;50.520;12.152;2023-03-12T15:04:19;8.77;;;3.07;;
24801;SDS011;12898;50.520;12.152;2023-03-12T15:06:48;7.40;;;2.73;;
24801;SDS011;12898;50.520;12.152;2023-03-12T15:09:28;7.00;;;3.23;;
24801;SDS011;12898;50.520;12.152;2023-03-12T15:11:58;8.63;;;3.20;;
24801;SDS011;12898;50.520;12.152;2023-03-12T15:14:31;8.33;;;3.37;;
24801;SDS011;12898;50.520;12.152;2023-03-12T15:17:04;7.70;;;3.40;;
24801;SDS011;12898;50.520;12.152;2023-03-12T15:19:32;7.67;;;3.40;;
24801;SDS011;12898;50.520;12.152;2023-03-12T15:22:03;7.27;;;3.13;;
24801;SDS011;12898;50.520;12.152;2023-03-12T15:24:32;5.80;;;3.03;;
24801;SDS011;12898;50.520;12.152;2023-03-12T15:29:53;7.53;;;3.63;;
24801;SDS011;12898;50.520;12.152;2023-03-12T15:32:21;7.73;;;3.10;;
24801;SDS011;12898;50.520;12.152;2023-03-12T15:34:50;8.07;;;2.90;;
24801;SDS011;12898;50.520;12.152;2023-03-12T15:40:02;7.00;;;3.20;;
24801;SDS011;12898;50.520;12.152;2023-03-12T15:42:39;7.83;;;3.07;;
24801;SDS011;12898;50.520;12.152;2023-03-12T15:45:20;4.97;;;2.60;;
24801;SDS011;12898;50.520;12.152;2023-03-12T15:47:50;4.57;;;2.47;;
24801;SDS011;12898;50.520;12.152;2023-03-12T15:50:18;4.20;;;2.40;;
24801;SDS011;12898;50.520;12.152;2023-03-12T15:55:27;4.20;;;2.30;;
24801;SDS011;12898;50.520;12.152;2023-03-12T15:57:55;4.87;;;2.50;;
24801;SDS011;12898;50.520;12.152;2023-03-12T16:00:42;4.53;;;2.30;;
24801;SDS011;12898;50.520;12.152;2023-03-12T16:03:18;2.80;;;1.87;;
24801;SDS011;12898;50.520;12.152;2023-03-12T16:05:45;4.50;;;2.30;;
24801;SDS011;12898;50.520;12.152;2023-03-12T16:08:16;4.80;;;1.90;;
24801;SDS011;12898;50.520;12.152;2023-03-12T16:10:49;3.60;;;2.30;;
24801;SDS011;12898;50.520;12.152;2023-03-12T16:13:16;4.27;;;2.40;;
24801;SDS011;12898;50.520;12.152;2023-03-12T16:15:45;4.07;;;2.40;;
24801;SDS011;12898;50.520;12.152;2023-03-12T16:18:12;4.57;;;2.47;;
24801;SDS011;12898;50.520;12.152;2023-03-12T16:20:44;4.23;;;2.00;;
24801;SDS011;12898;50.520;12.152;2023-03-12T16:23:11;3.93;;;2.30;;
24801;SDS011;12898;50.520;12.152;2023-03-12T16:25:37;3.70;;;2.30;;
24801;SDS011;12898;50.520;12.152;2023-03-12T16:28:05;5.53;;;2.57;;
24801;SDS011;12898;50.520;12.152;2023-03-12T16:30:32;4.20;;;2.03;;
24801;SDS011;12898;50.520;12.152;2023-03-12T16:33:01;4.27;;;2.33;;
24801;SDS011;12898;50.520;12.152;2023-03-12T16:35:29;5.03;;;2.33;;
24801;SDS011;12898;50.520;12.152;2023-03-12T16:37:58;3.60;;;2.13;;